createdAt,value
2022-10-13T00:02:32.698Z,80.99
2022-10-13T00:06:31.820Z,80.75
2022-10-13T00:10:30.117Z,80.98
2022-10-13T00:14:28.306Z,80.72
2022-10-13T00:18:41.189Z,80.61
2022-10-13T00:22:39.268Z,80.86
2022-10-13T00:26:37.232Z,81.00
2022-10-13T00:30:38.764Z,81.15
2022-10-13T00:34:38.348Z,80.97
2022-10-13T00:38:51.603Z,80.66
2022-10-13T00:42:57.234Z,80.96
2022-10-13T00:46:57.124Z,80.84
2022-10-13T00:50:58.639Z,80.75
2022-10-13T00:54:57.186Z,80.97
2022-10-13T00:59:22.822Z,81.09
2022-10-13T01:03:36.490Z,81.38
2022-10-13T01:07:35.959Z,81.40
2022-10-13T01:12:04.932Z,81.59
2022-10-13T01:16:26.103Z,81.22
2022-10-13T01:21:09.353Z,81.36
2022-10-13T01:25:38.170Z,81.09
2022-10-13T01:30:09.941Z,80.74
2022-10-13T01:34:31.999Z,80.92
2022-10-13T01:39:12.500Z,80.58
2022-10-13T01:43:47.925Z,80.64
2022-10-13T01:47:50.528Z,80.33
2022-10-13T01:52:07.332Z,80.26
2022-10-13T01:56:19.482Z,80.39
2022-10-13T02:00:21.401Z,80.24
2022-10-13T02:13:01.285Z,80.86
2022-10-13T02:17:03.623Z,80.46
2022-10-13T02:21:16.921Z,80.47
2022-10-13T02:25:30.596Z,80.32
2022-10-13T02:29:30.401Z,80.08
2022-10-13T02:33:29.244Z,79.96
2022-10-13T02:37:28.099Z,79.90
2022-10-13T02:41:26.946Z,80.35
2022-10-13T02:45:25.318Z,79.84
2022-10-13T02:49:39.644Z,79.70
2022-10-13T02:53:51.464Z,79.76
2022-10-13T02:57:49.664Z,79.58
2022-10-13T03:01:47.944Z,79.54
2022-10-13T03:06:00.339Z,79.49
2022-10-13T03:10:32.840Z,78.80
2022-10-13T03:13:51.864Z,78.96
2022-10-13T03:17:51.021Z,79.23
2022-10-13T03:26:30.921Z,78.85
2022-10-13T03:30:29.729Z,78.44
2022-10-13T03:34:27.959Z,78.56
2022-10-13T03:38:27.759Z,77.94
2022-10-13T03:42:26.345Z,77.54
2022-10-13T03:46:28.346Z,77.24
2022-10-13T03:50:41.005Z,77.78
2022-10-13T03:54:53.145Z,77.60
2022-10-13T03:59:05.184Z,77.19
2022-10-13T04:03:17.274Z,77.01
2022-10-13T04:07:15.526Z,77.26
2022-10-13T04:11:15.894Z,76.42
2022-10-13T04:15:15.169Z,76.31
2022-10-13T04:19:15.385Z,76.25
2022-10-13T04:23:27.960Z,76.18
2022-10-13T04:27:28.799Z,76.46
2022-10-13T04:31:04.683Z,76.63
2022-10-13T04:35:16.620Z,76.94
2022-10-13T04:39:15.001Z,77.01
2022-10-13T04:43:13.005Z,77.04
2022-10-13T04:47:11.485Z,76.77
2022-10-13T04:51:25.848Z,75.07
2022-10-13T04:55:24.074Z,74.59
2022-10-13T04:59:36.230Z,75.26
2022-10-13T05:03:35.856Z,75.63
2022-10-13T05:07:34.879Z,76.32
2022-10-13T05:11:34.197Z,76.58
2022-10-13T05:15:46.846Z,76.20
2022-10-13T05:19:45.769Z,74.14
2022-10-13T05:23:45.832Z,74.68
2022-10-13T05:27:46.786Z,75.04
2022-10-13T05:31:45.548Z,75.64
2022-10-13T05:35:43.962Z,75.54
2022-10-13T05:39:42.249Z,76.06
2022-10-13T05:43:42.481Z,76.40
2022-10-13T05:47:41.549Z,76.16
2022-10-13T05:52:01.801Z,75.44
2022-10-13T05:56:23.468Z,75.58
2022-10-13T06:00:35.792Z,75.54
2022-10-13T06:04:50.852Z,76.09
2022-10-13T06:08:52.129Z,75.93
2022-10-13T06:12:51.092Z,76.52
2022-10-13T06:16:50.500Z,76.28
2022-10-13T06:20:49.358Z,75.45
2022-10-13T06:24:49.263Z,75.48
2022-10-13T06:28:51.834Z,75.25
2022-10-13T06:32:56.768Z,74.31
2022-10-13T06:36:54.980Z,75.06
2022-10-13T06:40:53.064Z,74.60
2022-10-13T06:44:59.201Z,74.09
2022-10-13T06:48:30.209Z,74.23
2022-10-13T06:52:49.399Z,73.48
2022-10-13T06:56:19.950Z,73.21
2022-10-13T07:00:18.644Z,73.33
2022-10-13T07:04:18.539Z,72.66
2022-10-13T07:08:17.315Z,73.27
2022-10-13T07:12:29.651Z,72.38
2022-10-13T07:16:28.152Z,71.66
2022-10-13T07:20:26.737Z,69.69
2022-10-13T07:24:38.878Z,70.75
2022-10-13T07:28:37.889Z,69.73
2022-10-13T07:32:49.940Z,69.27
2022-10-13T07:37:01.827Z,69.85
2022-10-13T07:41:15.869Z,69.19
2022-10-13T07:45:28.165Z,68.73
2022-10-13T07:49:26.852Z,68.38
2022-10-13T07:53:25.581Z,67.85
2022-10-13T07:57:27.228Z,68.46
2022-10-13T08:01:25.518Z,69.06
2022-10-13T08:05:24.271Z,69.27
2022-10-13T08:13:37.772Z,67.06
2022-10-13T08:17:58.732Z,67.74
2022-10-13T08:22:12.298Z,67.94
2022-10-13T08:26:27.490Z,67.99
2022-10-13T08:30:26.710Z,68.10
2022-10-13T08:34:38.923Z,68.53
2022-10-13T08:38:37.391Z,67.65
2022-10-13T08:42:36.171Z,67.53
2022-10-13T08:47:00.275Z,66.64
2022-10-13T08:51:03.569Z,66.38
2022-10-13T08:55:01.966Z,65.03
2022-10-13T08:59:04.584Z,65.38
2022-10-13T09:03:20.320Z,65.23
2022-10-13T09:07:28.821Z,64.97
2022-10-13T09:11:36.649Z,65.67
2022-10-13T09:15:10.255Z,65.20
2022-10-13T09:19:25.677Z,65.99
2022-10-13T09:23:41.023Z,65.92
2022-10-13T09:27:59.608Z,66.87
2022-10-13T09:32:26.280Z,66.18
2022-10-13T09:36:25.029Z,66.69
2022-10-13T09:40:24.004Z,66.22
2022-10-13T09:44:36.206Z,65.81
2022-10-13T09:48:37.604Z,65.67
2022-10-13T09:52:36.498Z,65.91
2022-10-13T09:56:54.256Z,66.75
2022-10-13T10:00:54.831Z,66.73
2022-10-13T10:04:54.510Z,66.72
2022-10-13T10:09:05.032Z,66.88
2022-10-13T10:13:04.709Z,66.92
2022-10-13T10:17:41.971Z,67.17
2022-10-13T10:22:06.504Z,67.46
2022-10-13T10:26:19.371Z,68.34
2022-10-13T10:30:21.921Z,68.28
2022-10-13T10:40:02.646Z,69.70
2022-10-13T10:44:03.435Z,68.47
2022-10-13T10:48:12.722Z,70.50
2022-10-13T10:52:21.366Z,69.79
2022-10-13T10:56:38.910Z,67.96
2022-10-13T11:00:46.899Z,67.81
2022-10-13T11:04:48.586Z,68.88
2022-10-13T11:08:49.449Z,67.71
2022-10-13T11:13:17.683Z,68.56
2022-10-13T11:17:39.866Z,68.59
2022-10-13T11:21:56.926Z,69.17
2022-10-13T11:26:34.090Z,68.92
2022-10-13T11:30:50.690Z,68.37
2022-10-13T11:35:00.180Z,67.89
2022-10-13T11:39:28.431Z,68.12
2022-10-13T11:43:56.515Z,69.66
2022-10-13T11:48:51.842Z,68.85
2022-10-13T11:53:20.815Z,66.34
2022-10-13T11:57:26.382Z,67.96
2022-10-13T12:01:25.076Z,69.04
2022-10-13T12:05:26.409Z,68.41
2022-10-13T12:09:25.118Z,68.18
2022-10-13T12:17:44.870Z,68.77
2022-10-13T12:22:01.129Z,68.61
2022-10-13T12:26:23.243Z,68.97
2022-10-13T12:30:31.309Z,67.98
2022-10-13T12:34:33.476Z,66.90
2022-10-13T12:38:32.409Z,67.89
2022-10-13T12:42:36.502Z,67.13
2022-10-13T12:46:46.795Z,66.66
2022-10-13T12:50:45.573Z,67.18
2022-10-13T12:54:59.655Z,67.91
2022-10-13T12:59:00.730Z,67.70
2022-10-13T13:02:36.124Z,67.92
2022-10-13T13:06:37.655Z,67.76
2022-10-13T13:10:36.349Z,67.64
2022-10-13T13:14:49.839Z,67.63
2022-10-13T13:18:50.166Z,68.12
2022-10-13T13:22:51.073Z,68.69
2022-10-13T13:26:49.739Z,68.00
2022-10-13T13:31:02.406Z,67.49
2022-10-13T13:35:01.111Z,67.59
2022-10-13T13:38:59.769Z,66.94
2022-10-13T13:42:58.318Z,65.92
2022-10-13T13:47:02.536Z,66.38
2022-10-13T13:51:16.286Z,66.19
2022-10-13T13:55:16.313Z,66.62
2022-10-13T13:59:16.771Z,67.33
2022-10-13T14:03:19.222Z,68.00
2022-10-13T14:07:18.648Z,68.16
2022-10-13T14:11:17.746Z,67.66
2022-10-13T14:15:23.397Z,67.40
2022-10-13T14:19:24.990Z,67.80
2022-10-13T14:23:23.595Z,67.93
2022-10-13T14:27:23.022Z,68.30
2022-10-13T14:31:21.486Z,69.16
2022-10-13T14:35:20.879Z,68.72
2022-10-13T14:39:20.670Z,69.49
2022-10-13T14:43:33.137Z,70.08
2022-10-13T14:47:31.440Z,70.62
2022-10-13T14:51:30.235Z,70.61
2022-10-13T14:55:28.543Z,70.62
2022-10-13T14:59:27.166Z,70.89
2022-10-13T15:03:27.932Z,70.80
2022-10-13T15:07:26.661Z,70.83
2022-10-13T15:11:26.623Z,71.03
2022-10-13T15:15:24.842Z,71.45
2022-10-13T15:19:37.875Z,72.19
2022-10-13T15:23:37.912Z,72.24
2022-10-13T15:27:43.024Z,72.66
2022-10-13T15:32:09.177Z,73.35
2022-10-13T15:36:08.291Z,73.30
2022-10-13T15:40:11.820Z,72.44
2022-10-13T15:44:09.861Z,72.20
2022-10-13T15:48:23.057Z,72.24
2022-10-13T15:52:40.523Z,72.27
2022-10-13T15:56:39.679Z,72.56
2022-10-13T16:00:40.013Z,72.38
2022-10-13T16:04:52.261Z,72.47
2022-10-13T16:09:04.339Z,72.40
2022-10-13T16:13:03.519Z,71.34
2022-10-13T16:17:01.833Z,71.57
2022-10-13T16:21:00.170Z,71.54
2022-10-13T16:25:20.183Z,71.60
2022-10-13T16:29:20.614Z,71.52
2022-10-13T16:33:19.019Z,71.48
2022-10-13T16:37:18.160Z,71.44
2022-10-13T16:41:18.692Z,71.51
2022-10-13T16:45:17.194Z,71.85
2022-10-13T16:49:16.606Z,71.78
2022-10-13T16:53:14.640Z,71.58
2022-10-13T16:57:12.907Z,71.82
2022-10-13T17:01:12.536Z,71.67
2022-10-13T17:05:11.210Z,71.49
2022-10-13T17:09:10.781Z,71.90
2022-10-13T17:13:25.562Z,72.20
2022-10-13T17:17:24.980Z,71.83
2022-10-13T17:21:22.919Z,72.34
2022-10-13T17:25:21.719Z,72.75
2022-10-13T17:29:20.271Z,73.02
2022-10-13T17:33:35.439Z,72.96
2022-10-13T17:37:33.720Z,73.28
2022-10-13T17:41:45.910Z,73.46
2022-10-13T17:45:45.169Z,73.53
2022-10-13T17:49:43.824Z,73.52
2022-10-13T17:53:45.907Z,73.82
2022-10-13T17:57:44.499Z,73.68
2022-10-13T18:01:44.595Z,73.90
2022-10-13T18:05:44.174Z,74.10
2022-10-13T18:09:42.726Z,74.15
2022-10-13T18:13:42.213Z,73.73
2022-10-13T18:17:54.330Z,72.77
2022-10-13T18:21:53.382Z,71.93
2022-10-13T18:25:52.289Z,72.30
2022-10-13T18:29:52.344Z,72.34
2022-10-13T18:33:56.377Z,72.21
2022-10-13T18:37:54.710Z,72.31
2022-10-13T18:42:08.511Z,72.40
2022-10-13T18:46:06.997Z,72.18
2022-10-13T18:50:06.325Z,72.30
2022-10-13T18:54:07.670Z,72.10
2022-10-13T18:58:06.059Z,72.25
2022-10-13T19:02:04.252Z,72.45
2022-10-13T19:06:05.107Z,72.71
2022-10-13T19:10:04.710Z,72.97
2022-10-13T19:14:06.006Z,72.87
2022-10-13T19:18:06.386Z,73.02
2022-10-13T19:22:18.018Z,73.12
2022-10-13T19:26:19.743Z,73.07
2022-10-13T19:30:20.214Z,73.18
2022-10-13T19:34:34.936Z,73.52
2022-10-13T19:38:33.568Z,73.54
2022-10-13T19:42:32.766Z,73.91
2022-10-13T19:50:47.275Z,75.01
2022-10-13T19:54:46.694Z,73.98
2022-10-13T19:58:45.482Z,73.66
2022-10-13T20:02:43.571Z,71.96
2022-10-13T20:06:42.073Z,72.23
2022-10-13T20:10:54.258Z,72.05
2022-10-13T20:15:06.643Z,71.93
2022-10-13T20:19:06.815Z,72.87
2022-10-13T20:23:18.802Z,72.57
2022-10-13T20:27:17.079Z,71.88
2022-10-13T20:31:29.698Z,72.68
2022-10-13T20:35:27.914Z,72.76
2022-10-13T20:39:26.690Z,72.99
2022-10-13T20:43:25.977Z,72.97
2022-10-13T20:47:24.592Z,73.18
2022-10-13T20:51:24.544Z,72.75
2022-10-13T20:55:23.633Z,72.95
2022-10-13T20:59:22.398Z,73.11
2022-10-13T21:03:22.956Z,73.17
2022-10-13T21:07:21.459Z,73.14
2022-10-13T21:11:21.819Z,73.15
2022-10-13T21:15:20.760Z,73.58
2022-10-13T21:19:21.294Z,73.02
2022-10-13T21:23:20.032Z,73.62
2022-10-13T21:27:32.300Z,73.58
2022-10-13T21:31:30.945Z,73.76
2022-10-13T21:35:29.322Z,73.91
2022-10-13T21:39:41.076Z,73.78
2022-10-13T21:43:39.202Z,73.99
2022-10-13T21:47:38.150Z,74.42
2022-10-13T21:51:50.470Z,74.88
2022-10-13T21:55:49.315Z,75.43
2022-10-13T21:59:48.158Z,75.33
2022-10-13T22:03:47.467Z,75.43
2022-10-13T22:07:48.870Z,75.04
2022-10-13T22:11:47.569Z,75.67
2022-10-13T22:16:12.738Z,76.24
2022-10-13T22:20:16.396Z,76.70
2022-10-13T22:24:18.259Z,76.89
2022-10-13T22:28:36.090Z,76.99
2022-10-13T22:32:35.348Z,76.35
2022-10-13T22:36:33.760Z,76.40
2022-10-13T22:40:48.270Z,75.32
2022-10-13T22:44:24.030Z,75.87
2022-10-13T22:48:40.587Z,76.27
2022-10-13T22:52:40.951Z,76.36
2022-10-13T22:56:53.179Z,76.33
2022-10-13T23:00:51.101Z,76.67
2022-10-13T23:09:29.430Z,74.80
2022-10-13T23:13:41.717Z,74.67
2022-10-13T23:17:53.965Z,74.63
2022-10-13T23:21:52.298Z,74.75
2022-10-13T23:25:50.705Z,74.29
2022-10-13T23:29:49.301Z,74.10
2022-10-13T23:33:48.016Z,73.74
2022-10-13T23:37:46.478Z,73.72
2022-10-13T23:41:44.801Z,73.90
2022-10-13T23:45:45.431Z,73.93
2022-10-13T23:49:45.126Z,75.74
2022-10-13T23:53:43.693Z,75.84
2022-10-13T23:57:42.664Z,74.10
